createdAt,value
2022-08-11T00:01:53.781Z,100371.69
2022-08-11T00:04:23.834Z,100376.59
2022-08-11T00:06:50.884Z,100380.78
2022-08-11T00:09:19.685Z,100378.75
2022-08-11T00:11:51.658Z,100377.41
2022-08-11T00:14:36.978Z,100380.41
2022-08-11T00:17:13.472Z,100372.16
2022-08-11T00:20:12.052Z,100372.66
2022-08-11T00:22:35.195Z,100375.00
2022-08-11T00:25:11.011Z,100373.81
2022-08-11T00:27:39.764Z,100374.97
2022-08-11T00:30:10.728Z,100360.16
2022-08-11T00:32:38.603Z,100371.28
2022-08-11T00:35:54.595Z,100372.63
2022-08-11T00:37:54.145Z,100375.44
2022-08-11T00:40:45.312Z,100370.59
2022-08-11T00:43:57.131Z,100377.78
2022-08-11T00:46:26.232Z,100377.13
2022-08-11T00:49:13.584Z,100370.53
2022-08-11T00:52:05.860Z,100375.09
2022-08-11T00:54:38.863Z,100380.97
2022-08-11T00:57:36.641Z,100376.91
2022-08-11T01:00:18.015Z,100372.88
2022-08-11T01:03:01.232Z,100358.91
2022-08-11T01:05:43.344Z,100365.44
2022-08-11T01:08:54.634Z,100374.84
2022-08-11T01:11:58.759Z,100375.16
2022-08-11T01:14:45.738Z,100380.72
2022-08-11T01:17:35.654Z,100375.50
2022-08-11T01:20:48.022Z,100379.50
2022-08-11T01:23:49.590Z,100374.13
2022-08-11T01:27:04.960Z,100375.59
2022-08-11T01:30:26.593Z,100381.13
2022-08-11T01:33:10.863Z,100380.59
2022-08-11T01:36:07.769Z,100384.63
2022-08-11T01:39:08.207Z,100381.88
2022-08-11T01:42:34.686Z,100377.00
2022-08-11T01:45:37.236Z,100385.22
2022-08-11T01:48:21.959Z,100385.38
2022-08-11T01:51:22.745Z,100391.91
2022-08-11T01:53:57.925Z,100385.00
2022-08-11T01:56:36.950Z,100389.38
2022-08-11T01:59:23.674Z,100384.00
2022-08-11T02:02:21.515Z,100389.38
2022-08-11T02:04:56.124Z,100383.84
2022-08-11T02:08:07.941Z,100382.19
2022-08-11T02:11:15.861Z,100385.16
2022-08-11T02:13:49.098Z,100382.63
2022-08-11T02:16:48.999Z,100380.78
2022-08-11T02:19:37.086Z,100380.78
2022-08-11T02:22:27.746Z,100381.81
2022-08-11T02:25:00.815Z,100374.56
2022-08-11T02:27:37.494Z,100377.59
2022-08-11T02:30:07.667Z,100374.03
2022-08-11T02:33:06.532Z,100382.09
2022-08-11T02:35:57.994Z,100375.03
2022-08-11T02:39:00.900Z,100382.28
2022-08-11T02:42:08.799Z,100374.53
2022-08-11T02:45:04.417Z,100376.19
2022-08-11T02:48:17.219Z,100378.22
2022-08-11T02:51:06.445Z,100380.22
2022-08-11T02:53:40.957Z,100371.31
2022-08-11T02:56:32.312Z,100371.44
2022-08-11T02:59:27.200Z,100366.25
2022-08-11T03:02:04.924Z,100368.09
2022-08-11T03:04:55.515Z,100369.09
2022-08-11T03:07:29.708Z,100368.25
2022-08-11T03:10:21.161Z,100374.63
2022-08-11T03:13:31.488Z,100372.09
2022-08-11T03:16:40.045Z,100368.19
2022-08-11T03:19:30.591Z,100372.03
2022-08-11T03:22:08.673Z,100377.41
2022-08-11T03:24:49.669Z,100367.97
2022-08-11T03:27:39.435Z,100366.28
2022-08-11T03:30:13.356Z,100366.44
2022-08-11T03:33:35.693Z,100360.72
2022-08-11T03:37:15.512Z,100368.22
2022-08-11T03:39:38.169Z,100367.53
2022-08-11T03:42:30.935Z,100367.53
2022-08-11T03:45:30.728Z,100373.06
2022-08-11T03:48:04.971Z,100373.53
2022-08-11T03:51:22.172Z,100379.69
2022-08-11T03:54:06.591Z,100381.66
2022-08-11T03:56:55.417Z,100371.91
2022-08-11T03:59:43.166Z,100384.66
2022-08-11T04:02:27.490Z,100386.81
2022-08-11T04:05:24.712Z,100380.75
2022-08-11T04:08:22.275Z,100385.44
2022-08-11T04:11:01.250Z,100374.69
2022-08-11T04:13:49.609Z,100376.53
2022-08-11T04:16:29.685Z,100373.13
2022-08-11T04:19:41.931Z,100378.81
2022-08-11T04:22:23.983Z,100380.81
2022-08-11T04:25:24.696Z,100389.03
2022-08-11T04:28:09.348Z,100376.59
2022-08-11T04:31:08.416Z,100378.59
2022-08-11T04:33:59.986Z,100378.75
2022-08-11T04:37:08.689Z,100382.88
2022-08-11T04:40:03.045Z,100378.66
2022-08-11T04:43:20.660Z,100381.34
2022-08-11T04:46:20.157Z,100379.38
2022-08-11T04:49:24.268Z,100375.81
2022-08-11T04:52:37.472Z,100377.69
2022-08-11T04:55:56.771Z,100381.34
2022-08-11T04:59:02.657Z,100378.66
2022-08-11T05:01:45.923Z,100380.53
2022-08-11T05:05:00.381Z,100381.72
2022-08-11T05:07:55.356Z,100389.72
2022-08-11T05:10:47.293Z,100393.34
2022-08-11T05:13:45.944Z,100392.72
2022-08-11T05:16:32.979Z,100387.88
2022-08-11T05:19:19.645Z,100386.41
2022-08-11T05:22:10.236Z,100392.63
2022-08-11T05:25:05.201Z,100405.75
2022-08-11T05:28:02.488Z,100394.84
2022-08-11T05:30:48.401Z,100398.13
2022-08-11T05:33:40.571Z,100396.25
2022-08-11T05:36:12.903Z,100392.56
2022-08-11T05:38:58.576Z,100405.56
2022-08-11T05:41:45.897Z,100403.53
2022-08-11T05:44:37.395Z,100409.63
2022-08-11T05:47:23.195Z,100399.41
2022-08-11T05:50:09.833Z,100405.28
2022-08-11T05:53:03.883Z,100406.34
2022-08-11T05:56:02.980Z,100416.66
2022-08-11T05:58:42.574Z,100418.53
2022-08-11T06:01:10.885Z,100418.06
2022-08-11T06:03:58.316Z,100416.75
2022-08-11T06:06:27.287Z,100417.97
2022-08-11T06:08:56.710Z,100424.25
2022-08-11T06:11:44.183Z,100415.38
2022-08-11T06:14:11.751Z,100415.56
2022-08-11T06:16:38.653Z,100423.19
2022-08-11T06:19:05.967Z,100414.59
2022-08-11T06:21:39.181Z,100410.31
2022-08-11T06:24:16.004Z,100419.44
2022-08-11T06:27:11.357Z,100417.09
2022-08-11T06:29:50.166Z,100411.72
2022-08-11T06:32:29.957Z,100411.78
2022-08-11T06:35:18.166Z,100417.00
2022-08-11T06:38:06.239Z,100425.13
2022-08-11T06:40:35.726Z,100408.16
2022-08-11T06:43:19.067Z,100412.03
2022-08-11T06:46:04.735Z,100414.88
2022-08-11T06:48:34.373Z,100415.91
2022-08-11T06:51:13.340Z,100415.44
2022-08-11T06:54:03.189Z,100421.03
2022-08-11T06:57:12.506Z,100413.28
2022-08-11T06:59:59.829Z,100415.13
2022-08-11T07:02:36.269Z,100418.84
2022-08-11T07:05:08.054Z,100408.59
2022-08-11T07:08:33.767Z,100409.41
2022-08-11T07:11:40.492Z,100413.81
2022-08-11T07:14:25.790Z,100418.16
2022-08-11T07:16:53.221Z,100408.41
2022-08-11T07:19:44.753Z,100408.72
2022-08-11T07:22:30.536Z,100414.09
2022-08-11T07:25:27.533Z,100412.44
2022-08-11T07:28:19.334Z,100413.59
2022-08-11T07:30:46.393Z,100417.09
2022-08-11T07:34:08.374Z,100415.41
2022-08-11T07:36:12.674Z,100415.72
2022-08-11T07:38:47.498Z,100412.16
2022-08-11T07:41:15.481Z,100411.94
2022-08-11T07:43:43.309Z,100415.25
2022-08-11T07:46:30.149Z,100415.44
2022-08-11T07:49:16.168Z,100413.69
2022-08-11T07:52:02.749Z,100410.13
2022-08-11T07:54:32.168Z,100405.91
2022-08-11T07:57:09.149Z,100407.22
2022-08-11T08:00:03.491Z,100405.31
2022-08-11T08:02:59.659Z,100414.03
2022-08-11T08:05:45.456Z,100397.94
2022-08-11T08:08:33.343Z,100402.25
2022-08-11T08:11:22.554Z,100399.88
2022-08-11T08:14:13.352Z,100411.44
2022-08-11T08:16:59.052Z,100409.69
2022-08-11T08:19:25.992Z,100404.19
2022-08-11T08:21:52.561Z,100414.16
2022-08-11T08:24:23.048Z,100408.88
2022-08-11T08:26:58.499Z,100408.13
2022-08-11T08:29:50.837Z,100410.06
2022-08-11T08:32:18.535Z,100407.31
2022-08-11T08:34:46.244Z,100406.19
2022-08-11T08:37:15.637Z,100410.03
2022-08-11T08:40:00.713Z,100409.28
2022-08-11T08:42:32.190Z,100415.16
2022-08-11T08:45:04.019Z,100410.88
2022-08-11T08:47:43.035Z,100409.28
2022-08-11T08:50:16.562Z,100412.50
2022-08-11T08:52:50.372Z,100408.84
2022-08-11T08:55:20.817Z,100408.38
2022-08-11T08:57:49.832Z,100404.91
2022-08-11T09:00:19.371Z,100402.28
2022-08-11T09:04:07.268Z,100405.47
2022-08-11T09:07:12.452Z,100406.81
2022-08-11T09:09:44.448Z,100410.66
2022-08-11T09:12:12.940Z,100412.88
2022-08-11T09:15:00.379Z,100408.00
2022-08-11T09:17:41.022Z,100396.22
2022-08-11T09:20:09.932Z,100399.19
2022-08-11T09:23:41.390Z,100389.81
2022-08-11T09:26:08.883Z,100401.19
2022-08-11T09:28:36.759Z,100384.75
2022-08-11T09:31:03.509Z,100396.72
2022-08-11T09:33:30.558Z,100396.97
2022-08-11T09:35:57.477Z,100403.22
2022-08-11T09:38:49.447Z,100402.19
2022-08-11T09:41:16.899Z,100395.34
2022-08-11T09:44:04.393Z,100389.69
2022-08-11T09:46:32.712Z,100383.03
2022-08-11T09:49:00.744Z,100392.53
2022-08-11T09:51:31.744Z,100389.06
2022-08-11T09:54:03.854Z,100381.38
2022-08-11T09:56:49.591Z,100387.22
2022-08-11T09:59:18.240Z,100388.91
2022-08-11T10:01:50.952Z,100378.75
2022-08-11T10:04:20.659Z,100380.22
2022-08-11T10:07:04.274Z,100375.44
2022-08-11T10:09:50.851Z,100375.69
2022-08-11T10:12:24.537Z,100388.47
2022-08-11T10:15:15.744Z,100379.25
2022-08-11T10:18:04.877Z,100369.69
2022-08-11T10:20:34.522Z,100370.53
2022-08-11T10:23:20.126Z,100365.81
2022-08-11T10:26:05.839Z,100385.50
2022-08-11T10:28:49.745Z,100380.50
2022-08-11T10:31:56.986Z,100371.94
2022-08-11T10:34:25.599Z,100371.94
2022-08-11T10:36:55.362Z,100360.38
2022-08-11T10:39:22.272Z,100359.34
2022-08-11T10:42:12.148Z,100362.97
2022-08-11T10:44:46.352Z,100354.63
2022-08-11T10:47:33.003Z,100340.25
2022-08-11T10:50:19.194Z,100347.97
2022-08-11T10:53:06.683Z,100346.53
2022-08-11T10:55:51.828Z,100351.78
2022-08-11T10:58:37.127Z,100342.16
2022-08-11T11:01:04.337Z,100335.91
2022-08-11T11:03:34.449Z,100342.59
2022-08-11T11:06:44.666Z,100327.16
2022-08-11T11:09:24.685Z,100324.44
2022-08-11T11:12:13.084Z,100314.81
2022-08-11T11:15:00.441Z,100304.81
2022-08-11T11:17:48.776Z,100291.84
2022-08-11T11:20:36.277Z,100305.66
2022-08-11T11:23:08.709Z,100305.44
2022-08-11T11:26:14.415Z,100299.56
2022-08-11T11:28:52.729Z,100296.66
2022-08-11T11:31:40.360Z,100286.63
2022-08-11T11:34:15.743Z,100277.41
2022-08-11T11:36:56.672Z,100279.28
2022-08-11T11:39:25.702Z,100269.22
2022-08-11T11:41:54.079Z,100265.84
2022-08-11T11:44:22.689Z,100279.91
2022-08-11T11:46:50.363Z,100271.28
2022-08-11T11:51:54.203Z,100272.50
2022-08-11T11:54:23.679Z,100268.75
2022-08-11T11:56:53.098Z,100268.31
2022-08-11T11:59:39.691Z,100263.28
2022-08-11T12:02:11.860Z,100248.00
2022-08-11T12:04:41.882Z,100246.97
2022-08-11T12:07:27.783Z,100241.09
2022-08-11T12:09:55.024Z,100239.66
2022-08-11T12:12:40.383Z,100247.16
2022-08-11T12:15:07.550Z,100236.91
2022-08-11T12:17:35.855Z,100229.91
2022-08-11T12:20:03.807Z,100238.09
2022-08-11T12:22:49.398Z,100234.28
2022-08-11T12:25:35.347Z,100228.78
2022-08-11T12:28:02.497Z,100220.59
2022-08-11T12:30:29.154Z,100216.59
2022-08-11T12:32:55.753Z,100225.41
2022-08-11T12:35:22.364Z,100202.91
2022-08-11T12:37:52.287Z,100193.09
2022-08-11T12:41:11.801Z,100208.94
2022-08-11T12:43:56.491Z,100207.66
2022-08-11T12:46:31.731Z,100203.06
2022-08-11T12:49:18.456Z,100194.28
2022-08-11T12:52:12.483Z,100189.44
2022-08-11T12:55:01.152Z,100194.19
2022-08-11T12:57:49.412Z,100188.69
2022-08-11T13:00:35.133Z,100183.00
2022-08-11T13:03:21.239Z,100194.22
2022-08-11T13:05:49.624Z,100183.06
2022-08-11T13:08:16.901Z,100185.28
2022-08-11T13:11:02.967Z,100186.34
2022-08-11T13:13:53.772Z,100182.34
2022-08-11T13:16:17.102Z,100173.88
2022-08-11T13:18:43.986Z,100181.44
2022-08-11T13:21:12.030Z,100181.00
2022-08-11T13:23:59.696Z,100193.75
2022-08-11T13:26:47.191Z,100169.00
2022-08-11T13:29:18.230Z,100172.81
2022-08-11T13:31:45.541Z,100164.94
2022-08-11T13:34:12.276Z,100163.19
2022-08-11T13:36:39.015Z,100154.78
2022-08-11T13:39:05.688Z,100151.69
2022-08-11T13:41:39.156Z,100154.78
2022-08-11T13:44:10.542Z,100150.91
2022-08-11T13:46:37.841Z,100154.41
2022-08-11T13:49:08.944Z,100132.34
2022-08-11T13:51:38.290Z,100140.47
2022-08-11T13:54:13.400Z,100137.44
2022-08-11T13:56:43.101Z,100139.03
2022-08-11T13:59:09.479Z,100142.28
2022-08-11T14:02:21.415Z,100131.72
2022-08-11T14:04:35.026Z,100136.44
2022-08-11T14:07:06.355Z,100133.47
2022-08-11T14:09:39.649Z,100119.38
2022-08-11T14:12:33.646Z,100106.09
2022-08-11T14:15:08.582Z,100105.63
2022-08-11T14:17:48.169Z,100111.47
2022-08-11T14:20:39.501Z,100108.63
2022-08-11T14:23:04.015Z,100115.03
2022-08-11T14:25:59.658Z,100108.75
2022-08-11T14:28:32.021Z,100104.91
2022-08-11T14:31:03.505Z,100093.78
2022-08-11T14:33:58.074Z,100097.22
2022-08-11T14:36:20.929Z,100082.97
2022-08-11T14:38:47.822Z,100077.50
2022-08-11T14:41:33.246Z,100076.41
2022-08-11T14:44:18.351Z,100086.16
2022-08-11T14:47:03.775Z,100090.56
2022-08-11T14:49:30.991Z,100086.28
2022-08-11T14:51:58.638Z,100093.28
2022-08-11T14:54:44.960Z,100095.22
2022-08-11T14:57:11.528Z,100077.50
2022-08-11T14:59:38.395Z,100074.66
2022-08-11T15:02:24.276Z,100077.97
2022-08-11T15:04:51.433Z,100064.06
2022-08-11T15:07:17.983Z,100064.78
2022-08-11T15:12:33.656Z,100056.09
2022-08-11T15:15:19.199Z,100067.16
2022-08-11T15:17:47.721Z,100067.63
2022-08-11T15:20:36.157Z,100064.78
2022-08-11T15:23:22.241Z,100060.13
2022-08-11T15:25:53.528Z,100061.00
2022-08-11T15:28:39.431Z,100050.63
2022-08-11T15:31:24.626Z,100055.97
2022-08-11T15:34:18.148Z,100056.84
2022-08-11T15:37:04.319Z,100052.06
2022-08-11T15:40:31.183Z,100060.78
2022-08-11T15:43:20.006Z,100043.78
2022-08-11T15:45:49.961Z,100046.97
2022-08-11T15:48:26.399Z,100055.91
2022-08-11T15:50:54.732Z,100038.66
2022-08-11T15:53:28.980Z,100039.63
2022-08-11T15:55:56.379Z,100032.00
2022-08-11T15:58:42.390Z,100034.28
2022-08-11T16:01:27.391Z,100043.28
2022-08-11T16:04:14.066Z,100031.41
2022-08-11T16:06:49.342Z,100033.91
2022-08-11T16:09:19.248Z,100033.78
2022-08-11T16:11:46.887Z,100036.03
2022-08-11T16:14:34.988Z,100030.56
2022-08-11T16:17:01.979Z,100030.13
2022-08-11T16:19:36.292Z,100026.66
2022-08-11T16:22:07.379Z,100025.81
2022-08-11T16:27:04.808Z,100022.28
2022-08-11T16:27:24.507Z,100017.75
2022-08-11T16:29:51.664Z,100024.03
2022-08-11T16:32:23.237Z,100020.25
2022-08-11T16:35:13.627Z,100011.44
2022-08-11T16:37:59.424Z,100010.16
2022-08-11T16:40:26.252Z,100013.00
2022-08-11T16:43:12.077Z,100006.00
2022-08-11T16:45:58.690Z,100013.56
2022-08-11T16:48:35.346Z,100006.91
2022-08-11T16:51:08.739Z,100003.69
2022-08-11T16:53:45.971Z,99996.06
2022-08-11T16:56:25.844Z,100003.78
2022-08-11T16:59:14.474Z,100007.44
2022-08-11T17:01:44.631Z,99998.88
2022-08-11T17:04:35.675Z,100002.31
2022-08-11T17:07:42.041Z,100001.50
2022-08-11T17:10:51.569Z,100001.00
2022-08-11T17:13:23.986Z,100000.19
2022-08-11T17:16:06.605Z,100003.16
2022-08-11T17:18:54.727Z,100000.63
2022-08-11T17:21:30.188Z,99989.13
2022-08-11T17:24:08.529Z,99990.44
2022-08-11T17:26:57.498Z,99991.13
2022-08-11T17:29:53.633Z,99989.78
2022-08-11T17:32:55.741Z,99992.59
2022-08-11T17:35:32.614Z,99981.06
2022-08-11T17:38:08.786Z,99992.81
2022-08-11T17:40:38.749Z,99988.06
2022-08-11T17:43:26.446Z,99987.69
2022-08-11T17:46:13.677Z,99987.31
2022-08-11T17:48:47.947Z,99989.22
2022-08-11T17:51:37.783Z,99986.13
2022-08-11T17:54:25.549Z,99996.91
2022-08-11T17:57:21.434Z,99995.69
2022-08-11T17:59:56.809Z,99998.50
2022-08-11T18:02:50.226Z,100000.00
2022-08-11T18:05:19.664Z,100006.19
2022-08-11T18:08:05.510Z,100005.66
2022-08-11T18:10:51.823Z,100013.03
2022-08-11T18:13:39.947Z,100010.38
2022-08-11T18:16:26.525Z,100019.94
2022-08-11T18:19:11.609Z,100020.91
2022-08-11T18:22:03.559Z,100021.66
2022-08-11T18:25:05.263Z,100022.59
2022-08-11T18:27:51.975Z,100028.53
2022-08-11T18:30:37.249Z,100022.75
2022-08-11T18:33:50.566Z,100024.97
2022-08-11T18:36:30.344Z,100023.00
2022-08-11T18:39:16.524Z,100025.38
2022-08-11T18:42:03.665Z,100019.63
2022-08-11T18:44:50.210Z,100025.16
2022-08-11T18:47:35.798Z,100021.66
2022-08-11T18:50:35.473Z,100025.88
2022-08-11T18:53:25.576Z,100016.09
2022-08-11T18:56:11.205Z,100019.25
2022-08-11T18:59:00.485Z,100025.97
2022-08-11T19:01:46.668Z,100027.03
2022-08-11T19:04:32.570Z,100020.31
2022-08-11T19:07:24.100Z,100029.94
2022-08-11T19:10:09.672Z,100030.34
2022-08-11T19:12:58.378Z,100026.16
2022-08-11T20:08:19.183Z,100051.94
2022-08-11T20:11:05.776Z,100045.63
2022-08-11T20:13:51.457Z,100048.28
2022-08-11T20:16:38.268Z,100050.94
2022-08-11T20:19:26.166Z,100048.78
2022-08-11T20:22:30.366Z,100051.81
2022-08-11T20:25:15.755Z,100054.25
2022-08-11T20:28:01.043Z,100050.88
2022-08-11T20:30:48.571Z,100045.19
2022-08-11T20:33:37.570Z,100058.25
2022-08-11T20:36:23.208Z,100062.91
2022-08-11T20:39:08.983Z,100058.72
2022-08-11T20:41:59.349Z,100061.78
2022-08-11T20:44:45.449Z,100068.25
2022-08-11T20:47:30.687Z,100065.63
2022-08-11T20:50:17.807Z,100072.25
2022-08-11T20:53:05.458Z,100070.56
2022-08-11T20:55:53.890Z,100062.66
2022-08-11T21:01:45.876Z,100067.72
2022-08-11T21:04:31.431Z,100065.97
2022-08-11T21:07:28.009Z,100062.78
2022-08-11T21:10:23.008Z,100066.69
2022-08-11T21:13:26.093Z,100065.03
2022-08-11T21:16:26.520Z,100070.63
2022-08-11T21:19:15.810Z,100071.34
2022-08-11T21:22:03.508Z,100079.66
2022-08-11T21:24:49.284Z,100083.19
2022-08-11T21:27:35.571Z,100081.63
2022-08-11T21:30:21.136Z,100082.91
2022-08-11T21:33:06.354Z,100087.09
2022-08-11T21:35:52.006Z,100075.63
2022-08-11T21:38:37.031Z,100086.81
2022-08-11T21:41:22.758Z,100088.22
2022-08-11T21:44:08.867Z,100087.56
2022-08-11T21:46:55.130Z,100090.00
2022-08-11T21:49:40.304Z,100097.34
2022-08-11T21:52:25.095Z,100094.31
2022-08-11T21:55:10.232Z,100094.22
2022-08-11T21:57:55.779Z,100098.50
2022-08-11T22:00:40.834Z,100098.19
2022-08-11T22:03:25.984Z,100092.34
2022-08-11T22:06:12.716Z,100099.31
2022-08-11T22:08:57.901Z,100102.00
2022-08-11T22:11:42.943Z,100096.97
2022-08-11T22:14:27.832Z,100103.94
2022-08-11T22:17:12.976Z,100103.00
2022-08-11T22:20:00.496Z,100091.44
2022-08-11T22:22:52.579Z,100094.19
2022-08-11T22:25:46.521Z,100098.94
2022-08-11T22:28:37.149Z,100096.75
2022-08-11T22:31:23.364Z,100096.28
2022-08-11T22:34:08.495Z,100096.94
2022-08-11T22:36:53.626Z,100109.97
2022-08-11T22:39:39.919Z,100102.72
2022-08-11T22:42:33.528Z,100096.66
2022-08-11T22:45:19.727Z,100091.63
2022-08-11T22:48:06.497Z,100091.94
2022-08-11T22:50:52.863Z,100095.00
2022-08-11T22:53:57.808Z,100087.75
2022-08-11T22:56:46.202Z,100091.94
2022-08-11T22:59:31.903Z,100092.94
2022-08-11T23:02:17.011Z,100093.28
2022-08-11T23:05:02.209Z,100092.94
2022-08-11T23:07:50.186Z,100094.25
2022-08-11T23:10:37.522Z,100091.84
2022-08-11T23:13:22.702Z,100088.47
2022-08-11T23:16:08.558Z,100087.66
2022-08-11T23:18:54.207Z,100088.34
2022-08-11T23:21:39.660Z,100086.66
2022-08-11T23:24:25.437Z,100087.00
2022-08-11T23:27:10.588Z,100084.13
2022-08-11T23:29:56.179Z,100085.16
2022-08-11T23:32:41.999Z,100084.28
2022-08-11T23:35:38.541Z,100081.06
2022-08-11T23:38:24.834Z,100080.06
2022-08-11T23:41:09.984Z,100071.03
2022-08-11T23:43:55.590Z,100074.69
2022-08-11T23:46:42.007Z,100067.72
2022-08-11T23:49:28.770Z,100065.84
2022-08-11T23:52:14.355Z,100067.19
2022-08-11T23:54:59.842Z,100063.91
2022-08-11T23:57:47.959Z,100060.88
